Uba, Brazil
Current Conditions -  °F | °C
As of 11:00 AM on Monday 24 Nov 2014 (Local Time) from SBBQ Reporting Station
Overcast Overcast  
Wind Chill: 70°   Ceiling: 900
Heat Index: 70°   Visibility: 6mi
Dew Point: 64°   Wind: 6mph
Humidity: 83%   Direction: 70°ENE
Pressure: 30.21"   Gusts: NA
Location:  21.12°S, 42.95°W
Report Text: SBBQ 241300Z 07005KT 9999 FEW007 BKN009 OVC019 21/18 Q1023
Loading
Personal Weather Stations






























Interactive Weather Map New forecast layout! Learn more

10-Day Weather Forecast

Advertisements
Track Severe Weather on mobile